createdAt,value
2024-02-02T00:01:55.501Z,29.48
2024-02-02T00:04:23.376Z,27.92
2024-02-02T00:06:51.388Z,22.52
2024-02-02T00:09:20.467Z,28.13
2024-02-02T00:11:48.799Z,25.83
2024-02-02T00:14:16.700Z,21.73
2024-02-02T00:16:48.299Z,22.15
2024-02-02T00:19:16.269Z,26.88
2024-02-02T00:21:44.217Z,24.77
2024-02-02T00:24:12.950Z,25.55
2024-02-02T00:26:40.872Z,23.90
2024-02-02T00:29:08.745Z,29.10
2024-02-02T00:31:37.293Z,34.28
2024-02-02T00:34:06.807Z,19.38
2024-02-02T00:39:03.377Z,23.40
2024-02-02T00:41:31.277Z,26.33
2024-02-02T00:43:59.114Z,24.63
2024-02-02T00:46:30.154Z,26.13
2024-02-02T00:48:58.311Z,20.48
2024-02-02T00:51:27.768Z,22.00
2024-02-02T00:53:56.222Z,21.10
2024-02-02T00:56:25.450Z,19.92
2024-02-02T00:58:53.597Z,26.15
2024-02-02T01:01:22.222Z,22.88
2024-02-02T01:03:50.215Z,19.20
2024-02-02T01:06:18.157Z,24.80
2024-02-02T01:08:47.653Z,17.67
2024-02-02T01:11:15.660Z,24.48
2024-02-02T01:13:43.533Z,22.83
2024-02-02T01:16:12.047Z,22.98
2024-02-02T01:18:40.131Z,25.63
2024-02-02T01:21:08.106Z,26.42
2024-02-02T01:23:36.984Z,26.90
2024-02-02T01:26:06.425Z,26.63
2024-02-02T01:28:34.262Z,21.48
2024-02-02T01:31:02.843Z,25.30
2024-02-02T01:33:31.243Z,26.38
2024-02-02T01:35:59.781Z,25.15
2024-02-02T01:38:28.602Z,25.33
2024-02-02T01:40:56.498Z,27.30
2024-02-02T01:43:27.319Z,26.90
2024-02-02T01:45:55.931Z,27.75
2024-02-02T01:48:25.473Z,26.75
2024-02-02T01:53:21.956Z,29.20
2024-02-02T01:55:49.862Z,27.42
2024-02-02T01:58:17.748Z,25.40
2024-02-02T02:00:47.623Z,29.40
2024-02-02T02:03:15.821Z,22.45
2024-02-02T02:05:44.150Z,22.73
2024-02-02T02:08:12.291Z,28.92
2024-02-02T02:10:40.211Z,23.27
2024-02-02T02:13:08.406Z,31.83
2024-02-02T02:15:36.411Z,25.98
2024-02-02T02:18:06.241Z,26.67
2024-02-02T02:20:35.487Z,29.60
2024-02-02T02:23:05.265Z,29.58
2024-02-02T02:25:33.246Z,24.52
2024-02-02T02:28:01.398Z,19.30
2024-02-02T02:30:29.550Z,22.00
2024-02-02T02:32:57.542Z,25.05
2024-02-02T02:35:26.088Z,24.73
2024-02-02T02:37:54.203Z,25.27
2024-02-02T02:40:23.473Z,23.20
2024-02-02T02:42:52.415Z,21.35
2024-02-02T02:45:20.376Z,24.92
2024-02-02T02:47:48.553Z,19.30
2024-02-02T02:50:16.672Z,22.27
2024-02-02T02:52:44.756Z,21.95
2024-02-02T02:55:12.617Z,25.13
2024-02-02T02:57:42.042Z,32.13
2024-02-02T03:00:11.593Z,24.23
2024-02-02T03:02:38.494Z,22.50
2024-02-02T03:05:07.545Z,23.17
2024-02-02T03:07:35.416Z,20.60
2024-02-02T03:10:03.282Z,25.90
2024-02-02T03:12:31.682Z,23.90
2024-02-02T03:15:01.278Z,22.80
2024-02-02T03:19:57.143Z,19.40
2024-02-02T03:22:25.293Z,17.73
2024-02-02T03:24:53.427Z,18.73
2024-02-02T03:27:22.653Z,27.02
2024-02-02T03:29:50.605Z,26.00
2024-02-02T03:32:20.195Z,15.77
2024-02-02T03:34:48.184Z,19.85
2024-02-02T03:37:16.652Z,19.77
2024-02-02T03:39:46.895Z,18.35
2024-02-02T03:42:15.088Z,21.77
2024-02-02T03:44:43.247Z,21.63
2024-02-02T03:47:11.106Z,24.75
2024-02-02T03:49:40.597Z,20.10
2024-02-02T03:52:08.977Z,19.83
2024-02-02T03:54:37.257Z,14.77
2024-02-02T03:57:05.540Z,17.17
2024-02-02T03:59:33.831Z,18.65
2024-02-02T04:02:01.954Z,16.05
2024-02-02T04:04:30.554Z,20.60
2024-02-02T04:06:59.842Z,18.00
2024-02-02T04:09:28.372Z,18.40
2024-02-02T04:11:56.386Z,17.80
2024-02-02T04:14:24.757Z,18.80
2024-02-02T04:16:52.633Z,17.33
2024-02-02T04:19:22.523Z,18.80
2024-02-02T04:21:51.489Z,14.93
2024-02-02T04:24:20.765Z,17.83
2024-02-02T04:26:48.725Z,16.50
2024-02-02T04:29:17.035Z,14.57
2024-02-02T04:31:45.411Z,21.45
2024-02-02T04:34:13.482Z,19.10
2024-02-02T04:36:42.584Z,15.52
2024-02-02T04:39:11.149Z,18.08
2024-02-02T04:41:40.400Z,16.85
2024-02-02T04:44:08.715Z,13.80
2024-02-02T04:46:36.612Z,18.40
2024-02-02T04:49:04.709Z,12.73
2024-02-02T04:51:33.141Z,10.25
2024-02-02T04:54:01.458Z,16.13
2024-02-02T04:56:29.600Z,12.77
2024-02-02T04:58:59.150Z,17.33
2024-02-02T05:03:55.334Z,13.10
2024-02-02T05:06:23.927Z,14.90
2024-02-02T05:08:52.370Z,16.50
2024-02-02T05:11:20.270Z,16.50
2024-02-02T05:13:48.507Z,18.75
2024-02-02T05:16:18.192Z,15.75
2024-02-02T05:21:14.053Z,15.27
2024-02-02T05:23:48.690Z,15.55
2024-02-02T05:26:18.452Z,17.23
2024-02-02T05:28:46.965Z,21.73
2024-02-02T05:31:14.873Z,17.38
2024-02-02T05:33:47.336Z,20.17
2024-02-02T05:36:15.678Z,16.88
2024-02-02T05:38:43.977Z,16.08
2024-02-02T05:41:12.247Z,15.77
2024-02-02T05:43:40.132Z,11.50
2024-02-02T05:46:08.351Z,20.90
2024-02-02T05:48:36.485Z,14.65
2024-02-02T05:51:06.307Z,17.45
2024-02-02T05:53:34.518Z,19.95
2024-02-02T05:56:03.082Z,14.52
2024-02-02T05:58:30.933Z,16.92
2024-02-02T06:00:59.197Z,18.17
2024-02-02T06:03:27.666Z,17.00
2024-02-02T06:05:55.642Z,12.88
2024-02-02T06:08:25.351Z,16.13
2024-02-02T06:13:21.357Z,14.77
2024-02-02T06:15:49.560Z,19.60
2024-02-02T06:18:18.310Z,17.95
2024-02-02T06:20:46.330Z,19.15
2024-02-02T06:23:14.646Z,16.63
2024-02-02T06:25:43.906Z,19.10
2024-02-02T06:28:11.810Z,17.02
2024-02-02T06:30:40.351Z,16.08
2024-02-02T06:33:09.042Z,22.35
2024-02-02T06:35:36.962Z,19.67
2024-02-02T06:38:05.215Z,15.27
2024-02-02T06:40:33.086Z,14.25
2024-02-02T06:43:02.334Z,16.85
2024-02-02T06:45:30.626Z,21.05
2024-02-02T06:47:58.626Z,20.48
2024-02-02T06:50:31.639Z,24.30
2024-02-02T06:52:59.920Z,28.65
2024-02-02T06:55:27.849Z,17.17
2024-02-02T06:57:55.797Z,16.00
2024-02-02T07:00:25.498Z,24.40
2024-02-02T07:02:53.509Z,15.07
2024-02-02T07:05:23.194Z,18.17
2024-02-02T07:07:51.892Z,20.75
2024-02-02T07:10:19.967Z,21.00
2024-02-02T07:13:04.526Z,18.52
2024-02-02T07:15:41.099Z,20.67
2024-02-02T07:18:29.236Z,18.27
2024-02-02T07:21:04.587Z,15.80
2024-02-02T07:23:36.721Z,20.38
2024-02-02T07:26:19.679Z,16.75
2024-02-02T07:28:47.746Z,16.67
2024-02-02T07:31:35.369Z,17.52
2024-02-02T07:34:08.357Z,18.17
2024-02-02T07:36:37.039Z,16.92
2024-02-02T07:39:05.275Z,21.80
2024-02-02T07:41:33.483Z,16.90
2024-02-02T07:44:02.965Z,20.65
2024-02-02T07:49:00.754Z,16.77
2024-02-02T07:51:28.899Z,15.93
2024-02-02T07:53:56.922Z,25.65
2024-02-02T07:56:26.274Z,18.42
2024-02-02T07:58:56.250Z,18.05
2024-02-02T08:01:24.161Z,17.58
2024-02-02T08:03:53.670Z,22.55
2024-02-02T08:06:22.141Z,18.83
2024-02-02T08:08:50.061Z,16.25
2024-02-02T08:11:17.968Z,13.98
2024-02-02T08:13:45.870Z,19.45
2024-02-02T08:16:13.734Z,17.75
2024-02-02T08:18:43.602Z,16.58
2024-02-02T08:21:12.938Z,16.85
2024-02-02T08:23:41.035Z,18.77
2024-02-02T08:26:08.972Z,23.52
2024-02-02T08:28:45.627Z,18.63
2024-02-02T08:31:19.544Z,18.98
2024-02-02T08:33:47.617Z,22.55
2024-02-02T08:36:19.149Z,20.95
2024-02-02T08:38:47.240Z,24.52
2024-02-02T08:41:15.128Z,22.38
2024-02-02T08:43:43.474Z,19.95
2024-02-02T08:46:14.549Z,17.00
2024-02-02T08:48:45.944Z,19.45
2024-02-02T08:51:48.416Z,17.52
2024-02-02T08:54:47.558Z,18.35
2024-02-02T08:57:46.619Z,22.35
2024-02-02T09:00:32.700Z,20.48
2024-02-02T09:03:28.464Z,15.73
2024-02-02T09:05:58.218Z,18.35
2024-02-02T09:08:36.651Z,21.65
2024-02-02T09:11:23.731Z,18.38
2024-02-02T09:14:08.573Z,19.33
2024-02-02T09:16:43.315Z,21.63
2024-02-02T09:19:29.738Z,18.13
2024-02-02T09:22:00.676Z,21.33
2024-02-02T09:24:41.454Z,20.60
2024-02-02T09:27:14.178Z,20.27
2024-02-02T09:29:53.031Z,28.05
2024-02-02T09:32:20.936Z,21.13
2024-02-02T09:34:49.310Z,18.17
2024-02-02T09:37:23.192Z,23.52
2024-02-02T09:39:55.564Z,22.15
2024-02-02T09:42:55.957Z,20.75
2024-02-02T09:45:56.660Z,20.45
2024-02-02T09:48:39.117Z,24.05
2024-02-02T09:51:15.836Z,27.00
2024-02-02T09:54:15.856Z,23.55
2024-02-02T09:56:57.438Z,22.92
2024-02-02T09:59:36.872Z,23.02
2024-02-02T10:02:25.549Z,27.63
2024-02-02T10:05:06.615Z,27.00
2024-02-02T10:07:46.005Z,27.38
2024-02-02T10:10:43.878Z,22.17
2024-02-02T10:13:27.539Z,27.75
2024-02-02T10:16:20.030Z,25.55
2024-02-02T10:19:15.727Z,26.95
2024-02-02T10:21:55.446Z,26.27
2024-02-02T10:27:22.400Z,30.85
2024-02-02T10:30:06.785Z,29.02
2024-02-02T10:33:04.534Z,30.58
2024-02-02T10:35:38.058Z,31.33
2024-02-02T10:38:18.583Z,26.23
2024-02-02T10:40:54.009Z,27.38
2024-02-02T10:43:31.335Z,30.23
2024-02-02T10:46:12.806Z,32.17
2024-02-02T10:49:02.968Z,30.25
2024-02-02T10:51:41.421Z,31.90
2024-02-02T10:54:23.244Z,29.10
2024-02-02T10:57:03.627Z,28.92
2024-02-02T10:59:40.443Z,27.08
2024-02-02T11:02:21.899Z,28.55
2024-02-02T11:05:00.738Z,26.80
2024-02-02T11:07:31.115Z,26.02
2024-02-02T11:10:02.100Z,27.38
2024-02-02T11:12:41.713Z,26.33
2024-02-02T11:15:24.131Z,34.60
2024-02-02T11:18:04.363Z,29.80
2024-02-02T11:20:48.843Z,27.10
2024-02-02T11:23:25.595Z,31.45
2024-02-02T11:25:58.636Z,25.02
2024-02-02T11:28:33.572Z,30.60
2024-02-02T11:31:13.764Z,27.50
2024-02-02T11:33:54.944Z,28.50
2024-02-02T11:36:39.289Z,28.73
2024-02-02T11:39:23.619Z,31.85
2024-02-02T11:41:52.610Z,25.27
2024-02-02T11:44:21.340Z,29.70
2024-02-02T11:46:49.760Z,24.33
2024-02-02T11:49:24.943Z,33.35
2024-02-02T11:51:57.201Z,26.83
2024-02-02T11:54:31.837Z,28.73
2024-02-02T11:57:05.279Z,25.88
2024-02-02T11:59:35.220Z,31.98
2024-02-02T12:02:22.791Z,23.48
2024-02-02T12:04:57.694Z,27.73
2024-02-02T12:07:41.413Z,26.35
2024-02-02T12:10:11.552Z,26.17
2024-02-02T12:12:44.720Z,26.90
2024-02-02T12:15:13.200Z,26.58
2024-02-02T12:17:41.397Z,26.60
2024-02-02T12:20:18.946Z,32.03
2024-02-02T12:22:48.290Z,28.33
2024-02-02T12:25:17.231Z,30.40
2024-02-02T12:27:45.280Z,27.42
2024-02-02T12:30:13.907Z,24.23
2024-02-02T12:32:41.815Z,27.00
2024-02-02T12:35:12.632Z,27.10
2024-02-02T12:37:47.551Z,27.17
2024-02-02T12:40:15.695Z,31.10
2024-02-02T12:42:44.151Z,27.10
2024-02-02T12:45:13.878Z,24.92
2024-02-02T12:47:42.719Z,26.58
2024-02-02T12:50:17.270Z,25.70
2024-02-02T12:52:46.496Z,22.77
2024-02-02T12:55:14.884Z,28.77
2024-02-02T12:57:43.264Z,26.10
2024-02-02T13:00:15.488Z,24.73
2024-02-02T13:02:44.590Z,27.23
2024-02-02T13:05:17.971Z,28.52
2024-02-02T13:07:48.978Z,25.25
2024-02-02T13:10:18.703Z,26.58
2024-02-02T13:15:17.350Z,25.35
2024-02-02T13:17:45.778Z,23.00
2024-02-02T13:20:20.509Z,25.55
2024-02-02T13:22:51.511Z,21.05
2024-02-02T13:25:25.613Z,25.38
2024-02-02T13:27:55.228Z,23.70
2024-02-02T13:32:53.713Z,24.13
2024-02-02T13:35:27.211Z,23.60
2024-02-02T13:37:55.237Z,22.38
2024-02-02T13:40:28.986Z,24.90
2024-02-02T13:42:59.347Z,25.50
2024-02-02T13:45:29.899Z,21.42
2024-02-02T13:48:01.264Z,22.75
2024-02-02T13:50:41.589Z,25.10
2024-02-02T13:53:10.301Z,23.45
2024-02-02T13:55:39.225Z,20.70
2024-02-02T13:58:07.575Z,25.08
2024-02-02T14:00:35.552Z,24.40
2024-02-02T14:03:08.683Z,28.67
2024-02-02T14:05:38.325Z,24.20
2024-02-02T14:10:43.056Z,22.20
2024-02-02T14:13:16.018Z,22.88
2024-02-02T14:15:44.130Z,21.02
2024-02-02T14:18:14.280Z,25.25
2024-02-02T14:20:44.026Z,23.05
2024-02-02T14:23:12.781Z,21.27
2024-02-02T14:25:41.129Z,26.13
2024-02-02T14:28:16.273Z,21.83
2024-02-02T14:30:44.867Z,20.38
2024-02-02T14:33:21.780Z,22.67
2024-02-02T14:35:55.764Z,24.83
2024-02-02T14:38:23.662Z,22.70
2024-02-02T14:40:54.356Z,18.77
2024-02-02T14:43:22.457Z,18.88
2024-02-02T14:45:50.888Z,22.40
2024-02-02T14:48:20.367Z,24.90
2024-02-02T14:50:48.839Z,20.27
2024-02-02T14:53:18.124Z,20.45
2024-02-02T14:55:46.255Z,22.88
2024-02-02T14:58:15.256Z,20.75
2024-02-02T15:00:45.871Z,19.55
2024-02-02T15:03:14.601Z,22.23
2024-02-02T15:05:42.567Z,24.20
2024-02-02T15:08:11.417Z,18.55
2024-02-02T15:10:42.109Z,21.20
2024-02-02T15:13:13.494Z,18.65
2024-02-02T15:15:41.371Z,20.52
2024-02-02T15:18:09.672Z,18.50
2024-02-02T15:20:37.849Z,18.77
2024-02-02T15:23:06.198Z,18.83
2024-02-02T15:25:34.030Z,18.80
2024-02-02T15:28:03.273Z,16.75
2024-02-02T15:30:32.011Z,17.23
2024-02-02T15:33:00.061Z,17.57
2024-02-02T15:35:28.046Z,18.17
2024-02-02T15:37:55.925Z,19.15
2024-02-02T15:40:23.884Z,19.08
2024-02-02T15:42:51.895Z,16.60
2024-02-02T15:45:21.476Z,20.75
2024-02-02T15:47:51.945Z,21.20
2024-02-02T15:50:20.297Z,17.80
2024-02-02T15:52:49.048Z,17.50
2024-02-02T15:55:16.936Z,25.30
2024-02-02T15:57:50.269Z,19.35
2024-02-02T16:00:18.997Z,16.83
2024-02-02T16:02:48.458Z,16.17
2024-02-02T16:05:17.876Z,20.75
2024-02-02T16:07:45.914Z,19.83
2024-02-02T16:10:14.644Z,19.60
2024-02-02T16:12:42.946Z,19.03
2024-02-02T16:15:11.673Z,15.65
2024-02-02T16:17:40.565Z,16.90
2024-02-02T16:20:11.934Z,19.00
2024-02-02T16:22:40.691Z,18.35
2024-02-02T16:25:10.875Z,18.63
2024-02-02T16:27:40.203Z,20.60
2024-02-02T16:30:11.102Z,16.38
2024-02-02T16:32:39.025Z,23.13
2024-02-02T16:35:09.049Z,25.13
2024-02-02T16:37:40.842Z,24.08
2024-02-02T16:40:09.946Z,22.42
2024-02-02T16:42:40.429Z,19.77
2024-02-02T16:45:09.745Z,20.23
2024-02-02T16:47:37.675Z,20.90
2024-02-02T16:50:07.849Z,18.85
2024-02-02T16:52:37.284Z,29.17
2024-02-02T16:55:07.558Z,21.38
2024-02-02T16:57:35.622Z,24.48
2024-02-02T17:00:06.143Z,21.98
2024-02-02T17:02:34.853Z,18.45
2024-02-02T17:05:02.834Z,18.17
2024-02-02T17:07:30.957Z,20.77
2024-02-02T17:09:59.173Z,23.00
2024-02-02T17:12:28.500Z,20.77
2024-02-02T17:14:57.338Z,23.60
2024-02-02T17:17:25.234Z,18.83
2024-02-02T17:19:53.302Z,22.50
2024-02-02T17:22:21.193Z,24.90
2024-02-02T17:24:49.131Z,22.73
2024-02-02T17:27:17.081Z,25.30
2024-02-02T17:29:46.359Z,21.35
2024-02-02T17:32:17.445Z,24.17
2024-02-02T17:34:48.516Z,25.52
2024-02-02T17:37:17.045Z,24.08
2024-02-02T17:39:46.029Z,22.73
2024-02-02T17:42:13.973Z,23.70
2024-02-02T17:44:43.277Z,23.45
2024-02-02T17:47:12.473Z,22.15
2024-02-02T17:49:45.626Z,30.40
2024-02-02T17:52:17.531Z,30.63
2024-02-02T17:54:45.491Z,24.55
2024-02-02T17:57:13.480Z,26.55
2024-02-02T17:59:41.874Z,27.05
2024-02-02T18:02:10.912Z,25.33
2024-02-02T18:04:40.275Z,24.45
2024-02-02T18:07:10.576Z,26.83
2024-02-02T18:09:39.743Z,25.42
2024-02-02T18:12:12.050Z,35.55
2024-02-02T18:14:40.044Z,27.50
2024-02-02T18:17:07.941Z,27.08
2024-02-02T18:19:35.955Z,24.33
2024-02-02T18:22:05.619Z,26.50
2024-02-02T18:27:01.882Z,23.15
2024-02-02T18:29:29.806Z,22.88
2024-02-02T18:31:57.644Z,26.77
2024-02-02T18:34:25.517Z,27.90
2024-02-02T18:36:53.502Z,23.77
2024-02-02T18:39:22.830Z,23.90
2024-02-02T18:41:50.876Z,23.95
2024-02-02T18:44:18.772Z,22.15
2024-02-02T18:46:46.648Z,19.90
2024-02-02T18:49:14.891Z,25.17
2024-02-02T18:51:42.862Z,19.67
2024-02-02T18:54:13.616Z,18.73
2024-02-02T18:56:44.014Z,18.60
2024-02-02T18:59:11.992Z,17.13
2024-02-02T19:01:39.908Z,17.20
2024-02-02T19:04:09.235Z,15.45
2024-02-02T19:06:39.380Z,17.80
2024-02-02T19:09:07.703Z,19.15
2024-02-02T19:11:35.692Z,17.40
2024-02-02T19:14:06.499Z,14.43
2024-02-02T19:16:34.479Z,16.50
2024-02-02T19:19:02.659Z,15.55
2024-02-02T19:21:32.608Z,17.83
2024-02-02T19:24:02.825Z,14.48
2024-02-02T19:26:30.750Z,15.73
2024-02-02T19:28:58.632Z,14.23
2024-02-02T19:31:29.016Z,13.00
2024-02-02T19:33:57.537Z,12.85
2024-02-02T19:36:27.443Z,11.10
2024-02-02T19:38:56.290Z,11.55
2024-02-02T19:41:25.403Z,10.73
2024-02-02T19:43:54.368Z,9.13
2024-02-02T19:46:23.717Z,10.77
2024-02-02T19:48:54.377Z,10.77
2024-02-02T19:51:24.075Z,9.18
2024-02-02T19:56:20.354Z,9.00
2024-02-02T19:58:49.306Z,8.43
2024-02-02T20:01:19.580Z,10.10
2024-02-02T20:03:50.147Z,9.70
2024-02-02T20:06:21.562Z,8.75
2024-02-02T20:08:51.536Z,7.82
2024-02-02T20:11:21.110Z,11.00
2024-02-02T20:16:19.367Z,7.90
2024-02-02T20:18:47.825Z,7.13
2024-02-02T20:21:16.606Z,8.55
2024-02-02T20:23:46.875Z,7.23
2024-02-02T20:26:18.329Z,7.57
2024-02-02T20:28:47.303Z,7.20
2024-02-02T20:31:15.224Z,7.88
2024-02-02T20:33:43.213Z,9.50
2024-02-02T20:36:12.277Z,8.43
2024-02-02T20:38:42.898Z,11.07
2024-02-02T20:41:14.926Z,9.35
2024-02-02T20:43:43.029Z,8.23
2024-02-02T20:46:13.174Z,9.98
2024-02-02T20:48:41.511Z,11.13
2024-02-02T20:51:10.199Z,12.05
2024-02-02T20:53:38.749Z,8.82
2024-02-02T20:56:07.505Z,9.35
2024-02-02T20:58:36.764Z,13.55
2024-02-02T21:01:05.354Z,11.07
2024-02-02T21:03:33.651Z,9.35
2024-02-02T21:06:02.087Z,10.93
2024-02-02T21:08:30.181Z,9.48
2024-02-02T21:10:58.067Z,8.95
2024-02-02T21:13:25.889Z,7.43
2024-02-02T21:15:55.212Z,9.70
2024-02-02T21:18:24.931Z,9.15
2024-02-02T21:20:54.178Z,7.63
2024-02-02T21:23:22.278Z,9.60
2024-02-02T21:25:50.644Z,6.60
2024-02-02T21:28:20.532Z,5.07
2024-02-02T21:30:49.749Z,5.70
2024-02-02T21:33:27.832Z,5.07
2024-02-02T21:35:56.070Z,10.02
2024-02-02T21:38:23.956Z,6.97
2024-02-02T21:40:52.187Z,10.68
2024-02-02T21:43:20.070Z,5.43
2024-02-02T21:45:49.527Z,7.70
2024-02-02T21:48:17.662Z,9.73
2024-02-02T21:50:47.003Z,7.78
2024-02-02T21:53:15.172Z,10.57
2024-02-02T21:55:43.449Z,5.95
2024-02-02T21:58:11.312Z,5.32
2024-02-02T22:00:39.419Z,4.80
2024-02-02T22:03:07.619Z,5.55
2024-02-02T22:05:35.536Z,4.68
2024-02-02T22:08:05.078Z,4.60
2024-02-02T22:10:34.271Z,5.93
2024-02-02T22:13:02.151Z,8.68
2024-02-02T22:15:30.662Z,6.40
2024-02-02T22:17:58.810Z,4.95
2024-02-02T22:20:26.755Z,6.10
2024-02-02T22:22:55.368Z,6.80
2024-02-02T22:25:25.069Z,7.50
2024-02-02T22:27:53.128Z,9.95
2024-02-02T22:30:21.056Z,6.38
2024-02-02T22:32:49.452Z,5.88
2024-02-02T22:35:17.515Z,4.78
2024-02-02T22:37:45.408Z,4.68
2024-02-02T22:40:14.364Z,5.88
2024-02-02T22:42:43.632Z,6.20
2024-02-02T22:45:12.884Z,4.43
2024-02-02T22:47:40.926Z,5.38
2024-02-02T22:50:11.466Z,4.50
2024-02-02T22:52:39.767Z,4.65
2024-02-02T22:55:08.270Z,5.18
2024-02-02T22:57:36.115Z,6.70
2024-02-02T23:00:11.034Z,5.95
2024-02-02T23:02:38.954Z,5.10
2024-02-02T23:05:07.005Z,5.40
2024-02-02T23:07:35.035Z,5.30
2024-02-02T23:10:02.899Z,5.43
2024-02-02T23:12:30.763Z,5.22
2024-02-02T23:14:58.841Z,5.40
2024-02-02T23:17:28.049Z,6.43
2024-02-02T23:19:56.075Z,5.03
2024-02-02T23:22:24.774Z,7.43
2024-02-02T23:24:52.677Z,5.13
2024-02-02T23:27:20.649Z,5.50
2024-02-02T23:29:48.548Z,9.52
2024-02-02T23:32:16.406Z,7.28
2024-02-02T23:34:45.694Z,4.80
2024-02-02T23:37:13.803Z,5.95
2024-02-02T23:39:41.905Z,5.78
2024-02-02T23:42:10.602Z,6.07
2024-02-02T23:44:38.641Z,8.88
2024-02-02T23:47:07.003Z,10.13
2024-02-02T23:49:35.021Z,8.50
2024-02-02T23:52:04.744Z,9.85
2024-02-02T23:57:00.438Z,9.70
2024-02-02T23:59:28.620Z,10.68
